Terminal Aerodrome Forecast
Issued by NWS

Home | Current Version | Previous Version | Text Only | Print | Product List | Glossary On
Versions: 1 2 3 4 5 6 7 8 9 10 11 12 13 14 15 16 17 18 19 20 21
000
FTUS43 KGRR 221130
TAFAZO
TAF
KAZO 221130Z 2212/2312 22018G26KT P6SM -RA OVC015
      TEMPO 2212/2213 3SM -SHRA BR
     FM221300 24018G26KT P6SM VCSH OVC015
     FM221800 29015G25KT P6SM OVC025
     FM222100 29015G25KT P6SM SCT035
     FM230100 30008KT P6SM SKC=

USA.gov is the U.S. government's official web portal to all federal, state and local government web resources and services.